Time;durP1;ratioP1;P1;durP2;ratioP2;P2;SDS_P1;SDS_P2;PMS_P1;PMS_P2;Temp;Humidity;BMP_temperature;BMP_pressure;BME280_temperature;BME280_humidity;BME280_pressure;Samples;Min_cycle;Max_cycle;Signal;HPM_P1;HPM_P2
2023/05/05 00:00:22;;;;;;;8.52;2.72;;;8.90;78.80;;;;;;4975593;28;20029;-74
2023/05/05 00:02:48;;;;;;;8.65;2.67;;;8.80;78.90;;;;;;4971472;28;20034;-74
2023/05/05 00:05:13;;;;;;;4.30;1.98;;;8.80;78.90;;;;;;4975920;28;20070;-74
2023/05/05 00:07:39;;;;;;;8.30;2.80;;;8.80;79.10;;;;;;4974867;28;20038;-74
2023/05/05 00:10:05;;;;;;;7.40;2.63;;;8.80;78.90;;;;;;4973484;28;20030;-74
2023/05/05 00:12:30;;;;;;;9.88;2.80;;;8.70;79.10;;;;;;4973409;28;20029;-74
2023/05/05 00:14:56;;;;;;;6.05;2.80;;;8.70;79.20;;;;;;4977786;28;20042;-74
2023/05/05 00:17:21;;;;;;;11.05;3.03;;;8.60;79.00;;;;;;4975391;28;20394;-74
2023/05/05 00:19:47;;;;;;;7.50;2.92;;;8.60;78.80;;;;;;4974687;28;20038;-74
2023/05/05 00:22:13;;;;;;;4.75;2.42;;;8.60;79.20;;;;;;4975547;28;20137;-74
2023/05/05 00:24:38;;;;;;;11.38;2.95;;;8.50;78.70;;;;;;4980060;28;20070;-74
2023/05/05 00:27:04;;;;;;;8.80;3.08;;;8.50;78.70;;;;;;4994047;28;20065;-74
2023/05/05 00:29:29;;;;;;;9.25;2.95;;;8.50;78.80;;;;;;5006483;28;20070;-74
2023/05/05 00:31:55;;;;;;;5.53;2.20;;;8.50;78.60;;;;;;4991170;28;20442;-74
2023/05/05 00:34:21;;;;;;;9.07;2.65;;;8.50;78.70;;;;;;4989011;28;20061;-74
2023/05/05 00:36:47;;;;;;;12.05;3.03;;;8.50;78.60;;;;;;4990090;28;20100;-74
2023/05/05 00:39:12;;;;;;;7.55;2.78;;;8.40;78.90;;;;;;4993306;28;20023;-74
2023/05/05 00:41:38;;;;;;;9.23;2.50;;;8.30;79.10;;;;;;4990082;28;20041;-74
2023/05/05 00:44:04;;;;;;;6.47;2.67;;;8.30;78.90;;;;;;4992770;28;20038;-74
2023/05/05 00:46:32;;;;;;;9.35;2.60;;;8.30;78.60;;;;;;4989617;28;20029;-74
2023/05/05 00:48:59;;;;;;;9.80;2.83;;;8.30;78.50;;;;;;4992956;28;20038;-74
2023/05/05 00:51:26;;;;;;;10.63;2.60;;;8.40;78.30;;;;;;4993130;28;20023;-74
2023/05/05 00:53:52;;;;;;;7.85;2.92;;;8.40;78.40;;;;;;4992548;28;20109;-74
2023/05/05 00:56:20;;;;;;;8.40;2.72;;;8.40;78.40;;;;;;4982132;28;20491;-74
2023/05/05 00:58:46;;;;;;;10.77;2.80;;;8.30;78.20;;;;;;4980685;28;20062;-74
2023/05/05 01:01:12;;;;;;;5.50;2.15;;;8.30;78.10;;;;;;4987007;28;20105;-74
2023/05/05 01:03:38;;;;;;;9.30;2.63;;;8.40;78.10;;;;;;4975953;28;20751;-74
2023/05/05 01:06:22;;;;;;;7.40;2.70;;;8.30;78.00;;;;;;4973927;28;20046;-74
2023/05/05 01:09:07;;;;;;;6.82;2.20;;;8.30;77.80;;;;;;4980867;28;20030;-74
2023/05/05 01:12:17;;;;;;;7.93;2.85;;;8.30;77.70;;;;;;4977032;28;20156;-74
2023/05/05 01:14:55;;;;;;;9.25;2.67;;;8.30;77.70;;;;;;4956596;28;20038;-74
2023/05/05 01:17:27;;;;;;;10.27;3.05;;;8.30;77.80;;;;;;4977434;28;20491;-74
2023/05/05 01:20:10;;;;;;;9.38;2.85;;;8.30;77.90;;;;;;4979415;28;20049;-74
2023/05/05 01:22:45;;;;;;;7.38;2.88;;;8.20;78.20;;;;;;4977476;28;20125;-74
2023/05/05 01:25:25;;;;;;;10.20;2.75;;;8.10;78.10;;;;;;4976768;28;20076;-74
2023/05/05 01:28:05;;;;;;;7.63;2.53;;;8.10;78.60;;;;;;4984812;28;20033;-74
2023/05/05 01:31:19;;;;;;;11.70;2.85;;;8.10;78.50;;;;;;4981188;28;20104;-74
2023/05/05 01:33:51;;;;;;;8.95;2.70;;;8.00;78.40;;;;;;4919688;29;20067;-74
2023/05/05 01:36:25;;;;;;;6.50;2.47;;;8.00;78.90;;;;;;4963212;28;20496;-74
2023/05/05 01:38:56;;;;;;;7.25;2.83;;;8.00;78.60;;;;;;4978810;28;20042;-74
2023/05/05 01:41:46;;;;;;;7.63;2.33;;;8.00;78.40;;;;;;4974943;28;20026;-74
2023/05/05 01:44:15;;;;;;;8.40;2.80;;;8.00;78.90;;;;;;4962835;28;20791;-74
2023/05/05 01:46:41;;;;;;;6.57;2.45;;;8.00;78.60;;;;;;4974829;28;20314;-74
2023/05/05 01:49:08;;;;;;;8.15;2.63;;;8.00;78.80;;;;;;4973193;28;20125;-74
2023/05/05 01:51:35;;;;;;;9.75;2.55;;;8.00;78.50;;;;;;4975308;28;20455;-74
2023/05/05 01:54:06;;;;;;;6.03;2.10;;;7.90;78.80;;;;;;4975062;28;20133;-74
2023/05/05 01:56:33;;;;;;;8.75;2.83;;;7.90;78.70;;;;;;4975671;28;20030;-74
2023/05/05 01:59:00;;;;;;;7.07;2.85;;;7.90;78.70;;;;;;4973771;28;20491;-74
2023/05/05 02:01:27;;;;;;;8.45;2.40;;;7.90;78.70;;;;;;4980007;28;20029;-74
2023/05/05 02:03:55;;;;;;;11.05;2.70;;;7.90;79.00;;;;;;4989367;28;20022;-74
2023/05/05 02:06:22;;;;;;;9.52;2.83;;;7.90;78.80;;;;;;4990005;28;20030;-74
2023/05/05 02:08:49;;;;;;;7.50;2.78;;;7.80;79.20;;;;;;4990337;28;20034;-74
2023/05/05 02:11:16;;;;;;;8.52;2.72;;;7.70;79.00;;;;;;4994587;28;20060;-74
2023/05/05 02:13:43;;;;;;;8.90;3.00;;;7.70;79.20;;;;;;4993744;28;20463;-74
2023/05/05 02:16:09;;;;;;;9.00;2.78;;;7.70;79.10;;;;;;4995550;28;20101;-74
2023/05/05 02:18:36;;;;;;;7.22;2.67;;;7.70;79.10;;;;;;4994597;28;20029;-74
2023/05/05 02:21:02;;;;;;;6.78;2.38;;;7.70;79.40;;;;;;4986031;28;20153;-74
2023/05/05 02:23:28;;;;;;;6.65;2.40;;;7.60;79.40;;;;;;4990250;28;20031;-74
2023/05/05 02:25:58;;;;;;;8.40;2.92;;;7.60;79.70;;;;;;4992608;28;20455;-74
2023/05/05 02:28:37;;;;;;;7.85;2.63;;;7.60;79.70;;;;;;4992542;28;20088;-74
2023/05/05 02:31:05;;;;;;;8.10;2.45;;;7.60;79.90;;;;;;4992559;28;20367;-74
2023/05/05 02:33:34;;;;;;;8.82;2.58;;;7.50;79.80;;;;;;4981256;28;20415;-74
2023/05/05 02:36:10;;;;;;;8.07;3.00;;;7.50;79.90;;;;;;4974499;28;20042;-74
2023/05/05 02:38:40;;;;;;;7.55;2.72;;;7.60;79.80;;;;;;4980800;28;20021;-73
2023/05/05 02:41:10;;;;;;;8.25;2.47;;;7.50;79.80;;;;;;4973392;28;20034;-74
2023/05/05 02:43:39;;;;;;;10.15;2.65;;;7.60;79.80;;;;;;4973742;28;20030;-74
2023/05/05 02:46:05;;;;;;;8.65;2.50;;;7.50;80.10;;;;;;4975953;28;20038;-74
2023/05/05 02:48:30;;;;;;;7.65;2.42;;;7.50;80.10;;;;;;4972446;28;20091;-74
2023/05/05 02:50:56;;;;;;;8.80;2.97;;;7.50;80.20;;;;;;4975248;28;20049;-74
2023/05/05 02:53:25;;;;;;;6.75;2.63;;;7.50;80.10;;;;;;4973703;28;20421;-74
2023/05/05 02:56:04;;;;;;;6.72;3.33;;;7.50;80.50;;;;;;4976071;28;20077;-74
2023/05/05 02:59:06;;;;;;;7.57;2.50;;;7.40;80.70;;;;;;4974161;28;20033;-74
2023/05/05 03:01:48;;;;;;;8.48;2.85;;;7.50;80.60;;;;;;4944633;28;20058;-74
2023/05/05 03:04:32;;;;;;;8.57;2.95;;;7.50;80.80;;;;;;4976504;28;21850;-74
2023/05/05 03:07:00;;;;;;;8.63;2.80;;;7.40;80.80;;;;;;4971938;28;20045;-74
2023/05/05 03:09:35;;;;;;;7.55;3.05;;;7.40;80.80;;;;;;4978881;28;20026;-74
2023/05/05 03:12:08;;;;;;;8.02;2.75;;;7.40;80.90;;;;;;4976919;28;20037;-74
2023/05/05 03:14:37;;;;;;;6.32;2.60;;;7.40;81.00;;;;;;4973375;28;20030;-74
2023/05/05 03:17:04;;;;;;;7.47;2.58;;;7.40;80.90;;;;;;4975012;28;20030;-74
2023/05/05 03:19:30;;;;;;;10.30;2.78;;;7.40;81.00;;;;;;4972117;28;20112;-74
2023/05/05 03:21:56;;;;;;;7.03;2.60;;;7.30;81.30;;;;;;4970838;28;20026;-74
2023/05/05 03:24:22;;;;;;;6.70;2.92;;;7.30;81.30;;;;;;4974091;28;20106;-74
2023/05/05 03:26:48;;;;;;;6.65;2.65;;;7.30;81.40;;;;;;4976202;28;20045;-74
2023/05/05 03:29:15;;;;;;;7.13;2.40;;;7.30;81.40;;;;;;4971443;28;20054;-74
2023/05/05 03:31:40;;;;;;;10.32;3.55;;;7.30;81.70;;;;;;4973849;28;20437;-74
2023/05/05 03:34:07;;;;;;;8.40;2.90;;;7.30;81.80;;;;;;4979815;28;20034;-74
2023/05/05 03:36:33;;;;;;;10.80;3.10;;;7.30;81.60;;;;;;4973083;28;21654;-74
2023/05/05 03:38:59;;;;;;;8.30;2.63;;;7.40;81.50;;;;;;4971226;28;20487;-74
2023/05/05 03:41:25;;;;;;;8.02;3.13;;;7.30;81.80;;;;;;4976772;28;20440;-74
2023/05/05 03:43:51;;;;;;;5.05;2.63;;;7.30;81.80;;;;;;4973780;28;20076;-74
2023/05/05 03:46:16;;;;;;;9.18;3.22;;;7.30;82.00;;;;;;4983489;28;20474;-74
2023/05/05 03:48:42;;;;;;;7.03;3.00;;;7.20;82.00;;;;;;4977062;28;20073;-74
2023/05/05 03:51:08;;;;;;;10.73;3.28;;;7.30;82.00;;;;;;4974513;28;20034;-74
2023/05/05 03:53:34;;;;;;;8.27;3.15;;;7.20;82.50;;;;;;4977079;28;20038;-74
2023/05/05 03:55:59;;;;;;;8.25;2.80;;;7.20;82.30;;;;;;4981061;28;20100;-74
2023/05/05 03:58:25;;;;;;;9.60;2.88;;;7.20;82.30;;;;;;4978177;28;20049;-74
2023/05/05 04:00:51;;;;;;;8.15;2.45;;;7.30;82.40;;;;;;4981551;28;20466;-74
2023/05/05 04:03:16;;;;;;;8.38;2.75;;;7.20;82.40;;;;;;4986811;28;20101;-74
2023/05/05 04:05:42;;;;;;;7.85;2.80;;;7.20;82.60;;;;;;4987995;28;20034;-73
2023/05/05 04:08:07;;;;;;;8.57;2.88;;;7.30;82.70;;;;;;4994321;28;20033;-74
2023/05/05 04:10:33;;;;;;;6.30;2.88;;;7.30;82.40;;;;;;4992949;28;20050;-74
2023/05/05 04:12:59;;;;;;;8.60;2.55;;;7.30;82.60;;;;;;4993109;28;20422;-74
2023/05/05 04:15:25;;;;;;;10.05;2.47;;;7.30;82.40;;;;;;4986516;28;20105;-74
2023/05/05 04:17:50;;;;;;;11.45;3.20;;;7.40;82.10;;;;;;4992566;28;20038;-73
2023/05/05 04:20:16;;;;;;;7.43;3.00;;;7.40;82.00;;;;;;4973586;28;20470;-74
2023/05/05 04:22:41;;;;;;;9.43;3.00;;;7.50;81.90;;;;;;4992673;28;20034;-75
2023/05/05 04:25:07;;;;;;;6.40;2.45;;;7.50;82.10;;;;;;4999459;28;20092;-75
2023/05/05 04:27:33;;;;;;;9.70;3.33;;;7.60;81.80;;;;;;4988171;28;20707;-73
2023/05/05 04:29:59;;;;;;;8.50;2.55;;;7.60;81.60;;;;;;4986202;28;20085;-74
2023/05/05 04:32:25;;;;;;;8.70;2.47;;;7.70;81.60;;;;;;4989296;28;20034;-76
2023/05/05 04:34:50;;;;;;;8.82;2.75;;;7.70;81.50;;;;;;4985484;28;20103;-76
2023/05/05 04:37:15;;;;;;;6.65;2.40;;;7.80;81.20;;;;;;4987959;28;20302;-76
2023/05/05 04:39:41;;;;;;;6.40;2.45;;;7.80;81.00;;;;;;4964854;28;20026;-76
2023/05/05 04:42:07;;;;;;;7.32;2.40;;;7.90;80.90;;;;;;4984465;28;20030;-75
2023/05/05 04:44:33;;;;;;;7.25;2.30;;;7.90;80.90;;;;;;4991834;28;20092;-76
2023/05/05 04:46:59;;;;;;;6.95;2.60;;;8.00;80.70;;;;;;4987239;28;20070;-76
2023/05/05 04:49:27;;;;;;;8.27;2.67;;;8.00;80.90;;;;;;4993543;28;20058;-77
2023/05/05 04:51:53;;;;;;;7.20;2.50;;;8.00;80.90;;;;;;4984887;28;21128;-75
2023/05/05 04:54:18;;;;;;;6.05;2.75;;;8.10;80.60;;;;;;4985920;28;20042;-76
2023/05/05 04:56:44;;;;;;;7.20;2.65;;;8.10;80.30;;;;;;4984999;28;20469;-76
2023/05/05 04:59:09;;;;;;;7.65;2.45;;;8.20;80.00;;;;;;4985190;28;20038;-75
2023/05/05 05:01:35;;;;;;;6.70;2.30;;;8.30;79.90;;;;;;4999009;28;20129;-73
2023/05/05 05:04:00;;;;;;;5.20;2.33;;;8.40;79.70;;;;;;4990838;28;20096;-75
2023/05/05 05:06:26;;;;;;;6.68;2.70;;;8.50;79.90;;;;;;4992931;28;20427;-76
2023/05/05 05:08:51;;;;;;;8.10;2.47;;;8.50;79.20;;;;;;4991163;28;20108;-76
2023/05/05 05:11:17;;;;;;;7.57;2.42;;;8.60;79.40;;;;;;4992656;28;20109;-76
2023/05/05 05:13:42;;;;;;;9.20;2.55;;;8.70;79.20;;;;;;4993431;28;20084;-76
2023/05/05 05:16:08;;;;;;;11.18;2.50;;;8.70;79.00;;;;;;4990826;28;20391;-76
2023/05/05 05:18:33;;;;;;;7.97;2.67;;;8.80;78.70;;;;;;4996593;28;20034;-76
2023/05/05 05:20:59;;;;;;;8.13;2.58;;;8.90;78.70;;;;;;4990949;28;20034;-76
2023/05/05 05:23:24;;;;;;;8.55;2.20;;;8.90;77.90;;;;;;4992917;28;20022;-75
2023/05/05 05:25:50;;;;;;;7.50;2.45;;;9.00;77.80;;;;;;4992914;28;20057;-76
2023/05/05 05:28:15;;;;;;;9.05;2.58;;;9.00;77.40;;;;;;4991274;28;20442;-76
2023/05/05 05:30:40;;;;;;;7.80;2.47;;;9.20;77.40;;;;;;4991634;28;20070;-75
2023/05/05 05:33:06;;;;;;;8.88;2.78;;;9.30;77.30;;;;;;4988652;28;20030;-76
2023/05/05 05:35:31;;;;;;;9.23;2.10;;;9.30;76.80;;;;;;4991495;28;20121;-76
2023/05/05 05:37:57;;;;;;;8.68;2.80;;;9.30;76.30;;;;;;4984835;28;20041;-77
2023/05/05 05:40:22;;;;;;;9.98;2.88;;;9.40;77.10;;;;;;4979333;28;20464;-76
2023/05/05 05:42:48;;;;;;;5.78;2.20;;;9.50;76.40;;;;;;4983070;28;20085;-75
2023/05/05 05:45:13;;;;;;;7.90;2.50;;;9.40;76.50;;;;;;4996689;28;20108;-76
2023/05/05 05:47:39;;;;;;;8.75;2.47;;;9.50;76.70;;;;;;4987471;28;20035;-77
2023/05/05 05:50:05;;;;;;;9.80;2.53;;;9.50;76.80;;;;;;4990657;28;20027;-76
2023/05/05 05:52:31;;;;;;;8.02;2.50;;;9.50;76.80;;;;;;4987118;28;20424;-74
2023/05/05 05:54:56;;;;;;;7.35;2.08;;;9.50;76.40;;;;;;4988900;28;20105;-75
2023/05/05 05:57:23;;;;;;;7.30;2.78;;;9.50;76.20;;;;;;4981511;28;20030;-75
2023/05/05 05:59:49;;;;;;;6.15;2.15;;;9.50;75.90;;;;;;4975779;28;20026;-75
2023/05/05 06:02:15;;;;;;;4.45;2.22;;;9.50;75.80;;;;;;4992802;28;20037;-76
2023/05/05 06:04:40;;;;;;;8.18;2.50;;;9.60;76.10;;;;;;4989522;28;20371;-75
2023/05/05 06:07:06;;;;;;;8.02;2.63;;;9.50;75.90;;;;;;4988202;28;20433;-75
2023/05/05 06:09:32;;;;;;;8.20;2.25;;;9.70;76.70;;;;;;4989954;28;20049;-75
2023/05/05 06:11:57;;;;;;;6.75;2.83;;;9.70;76.10;;;;;;4990117;28;20042;-76
2023/05/05 06:14:22;;;;;;;5.82;2.78;;;9.60;76.00;;;;;;4993154;28;20100;-76
2023/05/05 06:16:48;;;;;;;5.68;2.20;;;9.80;76.20;;;;;;4992008;28;20027;-77
2023/05/05 06:19:13;;;;;;;7.50;2.78;;;10.10;75.20;;;;;;4996891;28;20053;-74
2023/05/05 06:21:39;;;;;;;6.03;2.40;;;10.40;74.80;;;;;;4992727;28;20105;-74
2023/05/05 06:24:05;;;;;;;7.95;2.53;;;10.60;73.90;;;;;;4989273;28;20026;-75
2023/05/05 06:26:30;;;;;;;7.68;2.35;;;10.90;73.20;;;;;;4992018;28;20022;-75
2023/05/05 06:28:56;;;;;;;7.32;2.60;;;11.00;72.40;;;;;;4990798;28;20041;-76
2023/05/05 06:31:21;;;;;;;4.38;2.15;;;11.10;72.40;;;;;;4972351;28;20121;-75
2023/05/05 06:33:47;;;;;;;6.10;2.35;;;11.10;71.90;;;;;;4985047;28;20482;-76
2023/05/05 06:36:12;;;;;;;8.07;2.70;;;11.10;70.80;;;;;;5000079;28;20443;-75
2023/05/05 06:38:38;;;;;;;6.60;2.25;;;11.50;71.60;;;;;;4987672;28;20103;-76
2023/05/05 06:41:03;;;;;;;5.72;2.47;;;11.60;70.60;;;;;;4987795;28;20129;-76
2023/05/05 06:43:29;;;;;;;4.60;2.40;;;11.50;70.50;;;;;;4990804;28;20022;-75
2023/05/05 06:45:55;;;;;;;11.48;3.10;;;11.30;70.30;;;;;;4999459;28;20026;-75
2023/05/05 06:48:20;;;;;;;6.65;2.55;;;11.40;71.30;;;;;;4989436;28;20026;-75
2023/05/05 06:50:46;;;;;;;7.57;2.47;;;11.40;70.80;;;;;;4987966;28;20018;-75
2023/05/05 06:53:11;;;;;;;7.30;2.80;;;11.50;71.00;;;;;;4990303;28;20355;-75
2023/05/05 06:55:37;;;;;;;5.53;2.55;;;11.50;70.70;;;;;;4988908;28;20089;-76
2023/05/05 06:58:02;;;;;;;10.35;2.38;;;11.60;70.80;;;;;;4991285;28;20033;-76
2023/05/05 07:00:28;;;;;;;9.05;2.80;;;11.70;70.80;;;;;;4985115;28;20499;-74
2023/05/05 07:02:53;;;;;;;5.68;2.58;;;11.60;70.30;;;;;;4989241;28;20049;-75
2023/05/05 07:05:19;;;;;;;6.18;2.40;;;11.60;70.30;;;;;;4988880;28;20060;-76
2023/05/05 07:07:55;;;;;;;7.38;3.00;;;11.70;69.90;;;;;;4990063;28;20371;-74
2023/05/05 07:10:22;;;;;;;8.85;2.80;;;11.80;70.80;;;;;;4987706;28;20022;-75
2023/05/05 07:12:48;;;;;;;6.32;2.70;;;12.00;70.30;;;;;;4991020;28;20371;-75
2023/05/05 07:15:14;;;;;;;5.78;2.63;;;11.80;69.90;;;;;;4984900;28;20057;-75
2023/05/05 07:17:40;;;;;;;5.70;2.42;;;11.90;69.50;;;;;;4985616;28;20026;-75
2023/05/05 07:20:07;;;;;;;8.93;2.67;;;11.90;69.80;;;;;;4992432;28;20153;-75
2023/05/05 07:22:33;;;;;;;9.10;3.03;;;12.00;69.40;;;;;;4984739;28;20023;-76
2023/05/05 07:24:58;;;;;;;8.23;2.92;;;12.10;69.30;;;;;;4989542;28;20046;-76
2023/05/05 07:27:24;;;;;;;8.93;2.53;;;12.20;69.50;;;;;;4989504;28;20030;-76
2023/05/05 07:29:50;;;;;;;7.32;2.60;;;12.40;69.60;;;;;;4990952;28;20471;-77
2023/05/05 07:32:15;;;;;;;8.13;2.88;;;12.50;69.60;;;;;;4972005;28;20364;-77
2023/05/05 07:34:42;;;;;;;9.32;2.80;;;12.50;68.70;;;;;;4989592;28;20054;-78
2023/05/05 07:37:07;;;;;;;6.15;2.72;;;12.60;68.70;;;;;;4990926;28;20027;-77
2023/05/05 07:39:33;;;;;;;7.95;2.88;;;12.60;68.50;;;;;;4989533;28;20447;-76
2023/05/05 07:42:00;;;;;;;6.50;2.75;;;12.80;68.90;;;;;;4989278;28;20313;-78
2023/05/05 07:44:25;;;;;;;6.80;2.80;;;12.70;67.50;;;;;;4988452;28;20057;-76
2023/05/05 07:46:51;;;;;;;4.80;2.30;;;12.90;67.30;;;;;;4989027;28;20483;-77
2023/05/05 07:49:17;;;;;;;8.15;2.63;;;13.10;67.90;;;;;;4988992;28;20473;-78
2023/05/05 07:51:42;;;;;;;9.13;2.40;;;13.40;67.40;;;;;;4990068;28;20026;-76
2023/05/05 07:54:08;;;;;;;8.35;2.80;;;13.60;67.10;;;;;;4987311;28;20052;-77
2023/05/05 07:56:33;;;;;;;8.32;2.83;;;14.00;66.20;;;;;;4990279;28;20038;-77
2023/05/05 07:58:59;;;;;;;7.30;2.65;;;13.90;66.20;;;;;;4991337;28;20538;-77
2023/05/05 08:01:24;;;;;;;7.88;3.10;;;14.00;65.00;;;;;;4988424;28;20026;-76
2023/05/05 08:03:50;;;;;;;10.10;2.63;;;14.50;63.70;;;;;;4987424;28;20028;-76
2023/05/05 08:06:20;;;;;;;7.93;2.55;;;15.00;63.50;;;;;;4988161;28;20033;-76
2023/05/05 08:08:47;;;;;;;7.18;2.70;;;15.50;63.70;;;;;;4982895;28;20014;-76
2023/05/05 08:11:13;;;;;;;7.82;3.13;;;15.80;61.10;;;;;;4986256;28;20065;-76
2023/05/05 08:13:38;;;;;;;5.13;2.72;;;16.00;59.30;;;;;;4986759;28;20058;-75
2023/05/05 08:16:04;;;;;;;4.43;2.53;;;16.10;60.20;;;;;;4988807;28;20416;-76
2023/05/05 08:18:36;;;;;;;8.38;2.90;;;16.30;60.20;;;;;;4986710;28;20654;-76
2023/05/05 08:21:02;;;;;;;6.70;2.35;;;16.70;59.00;;;;;;4988593;28;20026;-77
2023/05/05 08:23:27;;;;;;;9.93;3.50;;;16.50;59.50;;;;;;4984107;28;20034;-77
2023/05/05 08:25:53;;;;;;;6.55;2.67;;;16.20;59.30;;;;;;4988723;28;20080;-77
2023/05/05 08:28:18;;;;;;;8.27;2.88;;;16.10;58.70;;;;;;4991762;28;20062;-77
2023/05/05 08:30:44;;;;;;;11.48;3.00;;;16.00;58.30;;;;;;4986845;28;20054;-76
2023/05/05 08:33:09;;;;;;;6.65;2.92;;;15.90;60.10;;;;;;4992335;28;20042;-77
2023/05/05 08:35:35;;;;;;;11.13;3.30;;;15.40;58.60;;;;;;4992480;28;20030;-76
2023/05/05 08:38:01;;;;;;;11.18;3.15;;;15.50;59.60;;;;;;4988459;28;20030;-76
2023/05/05 08:40:31;;;;;;;7.93;3.17;;;15.90;59.70;;;;;;4992153;28;20066;-76
2023/05/05 08:42:57;;;;;;;8.18;3.50;;;15.90;58.90;;;;;;4987984;28;20399;-76
2023/05/05 08:45:23;;;;;;;6.82;2.88;;;15.50;58.20;;;;;;4993725;28;20133;-75
2023/05/05 08:47:48;;;;;;;11.70;3.00;;;15.60;58.80;;;;;;4986891;28;20034;-75
2023/05/05 08:50:17;;;;;;;7.88;3.05;;;15.50;59.90;;;;;;4989184;28;20522;-76
2023/05/05 08:52:45;;;;;;;8.05;2.83;;;15.40;59.00;;;;;;4991066;28;20573;-76
2023/05/05 08:55:23;;;;;;;10.02;3.00;;;15.90;61.00;;;;;;4989354;28;20030;-76
2023/05/05 08:57:55;;;;;;;7.50;3.25;;;15.80;59.60;;;;;;4991665;28;20030;-75
2023/05/05 09:00:21;;;;;;;6.28;2.92;;;16.40;58.80;;;;;;4991996;28;20383;-75
2023/05/05 09:02:48;;;;;;;7.18;2.80;;;16.40;58.40;;;;;;4992280;28;20065;-75
2023/05/05 09:05:14;;;;;;;7.28;2.75;;;16.50;57.40;;;;;;4991769;28;20038;-75
2023/05/05 09:07:42;;;;;;;9.43;3.28;;;16.80;57.10;;;;;;4990058;28;20037;-75
2023/05/05 09:10:10;;;;;;;7.40;2.63;;;16.80;56.50;;;;;;4977562;28;20026;-75
2023/05/05 09:12:39;;;;;;;6.18;3.10;;;16.90;57.50;;;;;;4988210;28;20426;-76
2023/05/05 09:15:06;;;;;;;7.03;2.85;;;16.80;56.20;;;;;;4990409;28;20038;-76
2023/05/05 09:17:32;;;;;;;7.38;2.92;;;16.40;58.20;;;;;;4992205;28;20025;-75
2023/05/05 09:20:06;;;;;;;7.35;3.10;;;16.10;58.60;;;;;;4985901;28;20093;-75
2023/05/05 09:22:32;;;;;;;6.72;2.90;;;16.00;57.50;;;;;;4990245;28;20022;-75
2023/05/05 09:24:58;;;;;;;5.80;2.72;;;16.00;58.50;;;;;;4995061;28;20089;-75
2023/05/05 09:27:23;;;;;;;7.60;3.17;;;15.60;58.80;;;;;;4991672;28;20410;-76
2023/05/05 09:29:49;;;;;;;6.13;2.83;;;15.60;59.50;;;;;;4993434;28;20050;-76
2023/05/05 09:32:17;;;;;;;6.50;2.63;;;15.90;59.30;;;;;;4992314;28;20366;-75
2023/05/05 09:34:42;;;;;;;6.22;2.95;;;15.80;58.50;;;;;;4993047;28;20026;-75
2023/05/05 09:37:08;;;;;;;9.02;3.08;;;15.80;58.50;;;;;;4988648;28;20046;-75
2023/05/05 09:39:33;;;;;;;7.90;2.83;;;15.90;60.00;;;;;;4986631;28;20038;-76
2023/05/05 09:42:00;;;;;;;6.18;2.70;;;16.00;60.40;;;;;;4988218;28;20025;-75
2023/05/05 09:44:36;;;;;;;9.70;3.15;;;15.80;59.90;;;;;;4994157;28;20023;-76
2023/05/05 09:47:02;;;;;;;8.55;2.80;;;15.60;58.50;;;;;;4992410;28;20053;-76
2023/05/05 09:49:28;;;;;;;9.77;2.95;;;15.70;59.10;;;;;;4993685;28;20066;-76
2023/05/05 09:51:56;;;;;;;8.27;3.00;;;15.70;57.90;;;;;;4990918;28;20101;-76
2023/05/05 09:54:28;;;;;;;8.07;3.08;;;15.50;58.20;;;;;;4990060;28;20133;-76
2023/05/05 09:56:55;;;;;;;10.25;3.42;;;15.50;58.50;;;;;;4985337;28;20026;-76
2023/05/05 09:59:22;;;;;;;5.75;2.63;;;15.30;58.10;;;;;;4993330;28;20494;-77
2023/05/05 10:01:48;;;;;;;6.97;2.97;;;15.10;57.60;;;;;;4989015;28;20026;-77
2023/05/05 10:04:28;;;;;;;9.20;2.80;;;15.40;58.00;;;;;;4993217;28;20374;-77
2023/05/05 10:06:55;;;;;;;9.27;3.45;;;15.70;58.20;;;;;;4993799;28;20410;-76
2023/05/05 10:09:20;;;;;;;5.50;2.42;;;15.80;57.70;;;;;;4996181;28;20018;-76
2023/05/05 10:11:46;;;;;;;6.68;2.97;;;16.00;57.30;;;;;;4992305;28;20034;-76
2023/05/05 10:14:14;;;;;;;10.38;3.13;;;16.30;56.30;;;;;;4994260;28;20026;-77
2023/05/05 10:16:54;;;;;;;7.07;3.25;;;16.50;57.80;;;;;;4990748;28;20085;-76
2023/05/05 10:19:22;;;;;;;11.25;2.97;;;16.90;55.10;;;;;;4986912;28;20030;-76
2023/05/05 10:21:56;;;;;;;11.32;3.17;;;16.60;53.30;;;;;;4992101;28;20382;-76
2023/05/05 10:24:29;;;;;;;7.50;3.28;;;16.70;55.70;;;;;;4984783;28;20118;-78
2023/05/05 10:26:57;;;;;;;6.93;3.15;;;16.80;53.70;;;;;;4988220;28;20049;-77
2023/05/05 10:29:35;;;;;;;14.90;3.72;;;17.00;54.80;;;;;;4991525;28;20129;-77
2023/05/05 10:32:10;;;;;;;8.95;2.72;;;17.20;55.20;;;;;;4989747;28;20458;-78
2023/05/05 10:34:52;;;;;;;9.10;2.92;;;17.00;53.90;;;;;;4990708;28;20434;-77
2023/05/05 10:37:20;;;;;;;5.72;3.03;;;17.00;53.90;;;;;;4987802;28;20137;-77
2023/05/05 10:39:47;;;;;;;8.82;3.00;;;17.00;54.60;;;;;;4986668;28;20026;-73
2023/05/05 10:42:15;;;;;;;12.30;3.05;;;17.00;54.50;;;;;;4972211;28;20022;-78
2023/05/05 10:44:41;;;;;;;7.53;3.25;;;16.50;55.20;;;;;;4998723;28;20367;-77
2023/05/05 10:47:06;;;;;;;8.70;2.72;;;16.40;55.30;;;;;;4991167;28;20028;-77
2023/05/05 10:49:48;;;;;;;7.30;3.20;;;16.20;54.80;;;;;;4988953;28;20026;-77
2023/05/05 10:52:31;;;;;;;7.20;3.22;;;16.00;55.80;;;;;;4993805;28;20459;-77
2023/05/05 10:55:20;;;;;;;9.05;2.83;;;16.00;56.70;;;;;;4987837;28;20030;-77
2023/05/05 10:57:51;;;;;;;6.93;2.90;;;15.80;57.90;;;;;;4987780;28;20022;-77
2023/05/05 11:00:47;;;;;;;;;;;15.70;56.90;;;;;;4989439;28;20030;-78
2023/05/05 11:03:16;;;;;;;7.05;2.90;;;15.50;58.90;;;;;;4989924;28;19921;-77
2023/05/05 11:06:06;;;;;;;8.68;3.30;;;15.40;61.00;;;;;;4982663;28;20371;-77
2023/05/05 11:08:45;;;;;;;9.93;2.85;;;15.20;61.30;;;;;;4974247;28;20038;-76
2023/05/05 11:11:11;;;;;;;10.45;3.55;;;15.10;63.10;;;;;;4988216;28;20050;-76
2023/05/05 11:13:40;;;;;;;9.55;2.95;;;15.00;65.70;;;;;;5006066;28;20059;-76
2023/05/05 11:16:41;;;;;;;8.23;2.90;;;14.80;64.30;;;;;;4990827;28;20463;-77
2023/05/05 11:19:41;;;;;;;11.70;3.05;;;14.70;64.20;;;;;;4994303;28;20033;-76
2023/05/05 11:22:07;;;;;;;8.20;2.85;;;14.60;63.50;;;;;;4998584;28;20461;-77
2023/05/05 11:24:35;;;;;;;8.52;3.08;;;14.60;64.10;;;;;;4992979;28;20117;-76
2023/05/05 11:27:02;;;;;;;7.35;3.00;;;14.60;63.30;;;;;;4994723;28;20101;-76
2023/05/05 11:30:02;;;;;;;7.60;3.08;;;14.70;64.00;;;;;;5004447;28;20062;-76
2023/05/05 11:32:27;;;;;;;7.45;3.22;;;14.70;63.80;;;;;;4991995;28;20033;-76
2023/05/05 11:34:53;;;;;;;9.93;3.22;;;14.70;65.60;;;;;;4972911;28;20034;-76
2023/05/05 11:37:22;;;;;;;8.57;3.42;;;14.70;68.40;;;;;;4997826;28;20043;-76
2023/05/05 11:40:17;;;;;;;10.20;2.97;;;14.50;69.10;;;;;;4986306;28;20034;-76
2023/05/05 11:42:42;;;;;;;7.50;2.70;;;14.30;71.50;;;;;;4989228;28;20042;-76
2023/05/05 11:45:22;;;;;;;7.45;3.10;;;14.20;68.60;;;;;;4992859;28;20057;-76
2023/05/05 11:47:48;;;;;;;9.15;3.00;;;14.30;72.60;;;;;;4995172;28;20030;-76
2023/05/05 11:50:16;;;;;;;6.22;3.03;;;14.40;71.10;;;;;;4992033;28;20033;-76
2023/05/05 11:52:41;;;;;;;8.23;3.00;;;14.50;69.10;;;;;;4989357;28;20455;-76
2023/05/05 11:55:07;;;;;;;8.38;2.83;;;14.60;68.60;;;;;;4994039;28;20041;-77
2023/05/05 11:57:33;;;;;;;8.65;3.28;;;14.90;69.50;;;;;;4992645;28;20426;-76
2023/05/05 12:00:00;;;;;;;7.85;3.10;;;15.00;68.60;;;;;;4978718;28;20031;-73
2023/05/05 12:02:28;;;;;;;8.50;2.85;;;15.10;67.10;;;;;;4987420;28;20595;-77
2023/05/05 12:04:54;;;;;;;8.43;2.95;;;15.30;65.80;;;;;;4984421;28;20045;-77
2023/05/05 12:07:22;;;;;;;7.15;2.60;;;15.60;65.70;;;;;;4967951;28;20018;-77
2023/05/05 12:09:48;;;;;;;7.13;2.83;;;15.90;61.90;;;;;;4984239;28;20424;-77
2023/05/05 12:12:15;;;;;;;10.20;2.60;;;16.50;63.00;;;;;;4993289;28;20063;-78
2023/05/05 12:14:58;;;;;;;4.93;2.63;;;16.80;60.90;;;;;;4994978;28;20366;-78
2023/05/05 12:17:24;;;;;;;6.05;2.42;;;16.90;60.20;;;;;;4993126;28;20046;-77
2023/05/05 12:19:52;;;;;;;6.97;2.50;;;16.90;59.00;;;;;;4992122;28;20371;-78
2023/05/05 12:22:23;;;;;;;8.07;2.90;;;17.10;57.80;;;;;;4983454;28;20027;-77
2023/05/05 12:25:00;;;;;;;9.18;2.97;;;16.90;58.00;;;;;;4991675;28;20038;-77
2023/05/05 12:27:26;;;;;;;7.20;2.65;;;17.10;56.40;;;;;;4997650;28;20030;-77
2023/05/05 12:29:56;;;;;;;10.20;2.55;;;17.30;56.10;;;;;;4996945;28;20049;-77
2023/05/05 12:32:26;;;;;;;10.05;2.40;;;17.60;55.00;;;;;;4993370;28;20443;-77
2023/05/05 12:34:54;;;;;;;11.90;2.90;;;17.70;55.60;;;;;;4989391;28;20030;-77
2023/05/05 12:37:21;;;;;;;8.35;2.65;;;17.60;54.90;;;;;;4990771;28;20126;-77
2023/05/05 12:39:47;;;;;;;5.72;2.58;;;17.50;53.70;;;;;;4988424;28;20035;-77
2023/05/05 12:42:12;;;;;;;7.15;2.35;;;17.60;55.10;;;;;;4992844;28;20018;-77
2023/05/05 12:44:39;;;;;;;6.82;2.58;;;17.90;53.70;;;;;;4995844;28;20090;-77
2023/05/05 12:47:05;;;;;;;11.85;3.08;;;17.90;51.80;;;;;;4992517;28;20026;-77
2023/05/05 12:49:33;;;;;;;9.88;3.17;;;18.00;51.30;;;;;;4992186;28;20034;-78
2023/05/05 12:51:59;;;;;;;6.38;2.70;;;18.10;52.10;;;;;;4979814;28;20419;-77
2023/05/05 12:54:28;;;;;;;4.80;2.33;;;18.50;51.60;;;;;;4990463;28;20069;-77
2023/05/05 12:56:55;;;;;;;6.47;2.60;;;18.40;51.40;;;;;;4992782;28;20080;-77